Time;durP1;ratioP1;P1;durP2;ratioP2;P2;SDS_P1;SDS_P2;PMS_P1;PMS_P2;Temp;Humidity;BMP_temperature;BMP_pressure;BME280_temperature;BME280_humidity;BME280_pressure;Samples;Min_cycle;Max_cycle;Signal;HPM_P1;HPM_P2
2021/06/05 00:01:32;;;;;;;6.97;3.13;;;18.50;90.60;;;;;;5034058;28;20427;-47
2021/06/05 00:04:36;;;;;;;6.13;3.35;;;18.50;90.80;;;;;;5052080;28;20033;-49
2021/06/05 00:07:41;;;;;;;5.38;3.10;;;18.50;90.90;;;;;;5051739;28;20045;-47
2021/06/05 00:10:49;;;;;;;4.07;2.88;;;18.50;90.90;;;;;;5051265;28;20040;-47
2021/06/05 00:13:57;;;;;;;8.40;3.17;;;18.50;91.10;;;;;;5051314;28;20045;-46
2021/06/05 00:17:01;;;;;;;7.15;3.60;;;18.40;91.40;;;;;;5051416;28;20400;-47
2021/06/05 00:20:11;;;;;;;9.05;5.63;;;18.40;91.40;;;;;;5051637;28;20045;-47
2021/06/05 00:23:19;;;;;;;5.30;3.42;;;18.20;91.80;;;;;;5050899;28;20660;-50
2021/06/05 00:26:24;;;;;;;7.88;3.50;;;18.10;91.90;;;;;;5051542;28;20519;-46
2021/06/05 00:29:28;;;;;;;6.32;3.40;;;18.10;92.20;;;;;;5051613;28;20048;-49
2021/06/05 00:32:32;;;;;;;7.00;3.63;;;18.00;92.40;;;;;;5050275;28;20048;-50
2021/06/05 00:35:38;;;;;;;8.93;3.38;;;18.00;92.80;;;;;;5037937;28;20033;-47
2021/06/05 00:38:42;;;;;;;8.85;3.20;;;18.00;92.80;;;;;;5041042;28;20029;-48
2021/06/05 00:41:47;;;;;;;8.38;3.05;;;18.00;92.80;;;;;;5045926;28;20032;-46
2021/06/05 00:44:51;;;;;;;6.63;3.28;;;18.10;92.60;;;;;;5030601;28;20542;-47
2021/06/05 00:47:56;;;;;;;10.60;3.38;;;18.20;92.30;;;;;;5030653;28;20055;-48
2021/06/05 00:51:01;;;;;;;6.82;3.25;;;18.20;92.30;;;;;;5036255;28;20835;-47
2021/06/05 00:54:14;;;;;;;5.15;3.25;;;18.30;92.30;;;;;;5037935;28;20043;-47
2021/06/05 00:57:20;;;;;;;8.45;2.65;;;18.30;92.00;;;;;;5038957;28;20526;-46
2021/06/05 01:00:43;;;;;;;4.43;2.88;;;18.30;92.00;;;;;;5037731;28;20067;-47
2021/06/05 01:03:48;;;;;;;6.50;3.00;;;18.40;91.80;;;;;;5038460;28;20048;-49
2021/06/05 01:07:04;;;;;;;6.05;2.85;;;18.40;91.70;;;;;;5038757;28;20058;-48
2021/06/05 01:10:23;;;;;;;4.15;2.50;;;18.50;91.30;;;;;;5030249;28;20048;-47
2021/06/05 01:13:43;;;;;;;4.30;2.72;;;18.70;91.10;;;;;;5030437;28;20055;-49
2021/06/05 01:16:51;;;;;;;4.07;2.85;;;18.70;91.00;;;;;;5050649;28;20053;-48
2021/06/05 01:19:57;;;;;;;3.60;2.83;;;18.80;90.70;;;;;;5038622;28;20069;-50
2021/06/05 01:23:29;;;;;;;7.57;2.92;;;18.80;90.70;;;;;;5049961;28;20045;-47
2021/06/05 01:26:36;;;;;;;5.45;3.13;;;18.70;91.10;;;;;;5049459;28;20033;-47
2021/06/05 01:29:44;;;;;;;9.25;2.85;;;18.70;91.40;;;;;;5037741;28;20047;-47
2021/06/05 01:32:49;;;;;;;5.60;2.80;;;18.70;92.60;;;;;;5050151;28;20517;-49
2021/06/05 01:35:54;;;;;;;4.60;3.20;;;18.60;93.00;;;;;;5048853;28;20036;-46
2021/06/05 01:39:09;;;;;;;3.88;2.78;;;18.50;92.60;;;;;;5050423;28;20545;-47
2021/06/05 01:42:28;;;;;;;4.57;3.22;;;18.40;92.70;;;;;;5036954;28;20033;-49
2021/06/05 01:45:37;;;;;;;10.85;3.40;;;18.40;92.80;;;;;;5037691;28;20099;-50
2021/06/05 01:48:42;;;;;;;6.45;3.22;;;18.40;93.30;;;;;;5049873;28;20048;-47
2021/06/05 01:51:52;;;;;;;4.07;3.00;;;18.40;93.70;;;;;;5049064;28;20048;-47
2021/06/05 01:55:14;;;;;;;6.63;3.20;;;18.50;93.70;;;;;;5037298;28;20542;-50
2021/06/05 01:58:27;;;;;;;4.90;3.20;;;18.50;93.80;;;;;;5049374;28;20037;-46
2021/06/05 02:01:44;;;;;;;8.10;3.67;;;18.40;94.20;;;;;;5037381;28;20052;-47
2021/06/05 02:04:49;;;;;;;9.77;3.70;;;17.90;94.70;;;;;;5048147;28;20044;-47
2021/06/05 02:07:53;;;;;;;6.00;3.35;;;17.80;95.40;;;;;;5049774;28;20518;-47
2021/06/05 02:11:07;;;;;;;12.77;3.85;;;17.80;95.60;;;;;;5036909;28;21128;-50
2021/06/05 02:14:25;;;;;;;6.63;3.60;;;17.70;96.00;;;;;;5049117;28;20059;-47
2021/06/05 02:17:36;;;;;;;5.68;3.85;;;17.50;96.30;;;;;;5037895;28;20040;-47
2021/06/05 02:20:48;;;;;;;6.18;3.53;;;17.40;97.00;;;;;;5036991;28;20051;-48
2021/06/05 02:24:03;;;;;;;11.05;3.35;;;17.40;97.00;;;;;;5050016;28;20047;-47
2021/06/05 02:27:10;;;;;;;6.00;3.60;;;17.50;96.90;;;;;;5048720;28;20431;-46
2021/06/05 02:30:19;;;;;;;7.00;3.60;;;17.60;96.70;;;;;;5036359;28;20451;-44
2021/06/05 02:33:27;;;;;;;5.35;3.35;;;17.70;96.50;;;;;;5048612;28;20040;-48
2021/06/05 02:36:38;;;;;;;5.93;3.55;;;17.80;96.80;;;;;;5036381;28;20459;-48
2021/06/05 02:39:43;;;;;;;10.98;3.60;;;17.80;96.80;;;;;;5037378;28;20033;-47
2021/06/05 02:42:48;;;;;;;9.55;4.07;;;17.80;96.80;;;;;;5038407;28;20048;-47
2021/06/05 02:46:21;;;;;;;11.20;3.90;;;17.80;96.20;;;;;;5047217;28;20040;-46
2021/06/05 02:49:31;;;;;;;4.35;3.38;;;17.80;96.60;;;;;;5049467;28;20044;-47
2021/06/05 02:52:36;;;;;;;5.82;3.38;;;17.80;96.40;;;;;;5048051;28;20048;-47
2021/06/05 02:55:46;;;;;;;6.80;4.03;;;17.80;96.20;;;;;;5037128;28;20040;-47
2021/06/05 02:58:52;;;;;;;10.40;3.45;;;17.80;95.90;;;;;;5048054;28;20047;-48
2021/06/05 03:02:01;;;;;;;5.90;3.10;;;17.90;95.90;;;;;;5036951;28;20052;-46
2021/06/05 03:05:07;;;;;;;3.90;2.92;;;17.90;95.70;;;;;;5051766;28;20043;-49
2021/06/05 03:08:20;;;;;;;7.47;2.85;;;17.90;95.90;;;;;;5052655;28;20048;-46
2021/06/05 03:11:27;;;;;;;6.68;2.97;;;17.90;95.80;;;;;;5051655;28;20051;-46
2021/06/05 03:14:34;;;;;;;3.67;2.97;;;18.00;96.20;;;;;;5051850;28;20044;-46
2021/06/05 03:17:40;;;;;;;7.85;3.30;;;18.00;96.30;;;;;;5052315;28;20056;-46
2021/06/05 03:20:48;;;;;;;8.98;3.47;;;18.00;96.40;;;;;;5052476;28;20522;-46
2021/06/05 03:23:53;;;;;;;4.93;3.60;;;18.00;96.10;;;;;;5051679;28;20068;-45
2021/06/05 03:27:11;;;;;;;7.47;3.28;;;18.00;96.80;;;;;;5052693;28;20056;-47
2021/06/05 03:30:20;;;;;;;3.85;2.95;;;18.00;96.30;;;;;;5051324;28;20048;-46
2021/06/05 03:33:27;;;;;;;5.35;3.40;;;18.00;96.30;;;;;;5040056;28;20502;-46
2021/06/05 03:36:32;;;;;;;7.28;3.53;;;18.00;96.30;;;;;;5051187;28;20048;-46
2021/06/05 03:39:39;;;;;;;7.78;3.85;;;18.00;96.90;;;;;;5051481;28;20044;-47
2021/06/05 03:42:45;;;;;;;7.43;3.80;;;18.00;97.70;;;;;;5051983;28;20541;-45
2021/06/05 03:45:51;;;;;;;11.52;3.47;;;18.00;98.40;;;;;;5027411;28;20044;-46
2021/06/05 03:48:56;;;;;;;8.27;3.80;;;18.00;98.80;;;;;;5020003;28;20052;-47
2021/06/05 03:52:03;;;;;;;10.73;3.95;;;17.90;99.40;;;;;;5031585;28;20064;-46
2021/06/05 03:55:10;;;;;;;6.28;3.22;;;18.00;99.90;;;;;;5051214;28;20040;-48
2021/06/05 03:58:16;;;;;;;4.70;3.17;;;17.80;99.10;;;;;;5052333;28;20044;-45
2021/06/05 04:01:23;;;;;;;9.57;3.50;;;17.70;98.20;;;;;;5051232;28;20040;-46
2021/06/05 04:04:29;;;;;;;4.60;3.30;;;17.60;97.30;;;;;;5019945;28;20060;-46
2021/06/05 04:07:33;;;;;;;5.90;3.05;;;17.30;99.00;;;;;;5031390;28;20109;-46
2021/06/05 04:10:38;;;;;;;5.20;3.08;;;17.20;99.10;;;;;;5019523;28;20408;-46
2021/06/05 04:13:45;;;;;;;10.70;3.50;;;17.30;99.90;;;;;;5031621;28;20072;-45
2021/06/05 04:16:49;;;;;;;9.25;3.63;;;17.20;99.90;;;;;;5030986;28;20036;-47
2021/06/05 04:19:54;;;;;;;8.18;4.10;;;17.30;99.90;;;;;;5031767;28;20044;-47
2021/06/05 04:22:57;;;;;;;7.35;3.75;;;17.20;99.90;;;;;;5049166;28;20048;-46
2021/06/05 04:26:02;;;;;;;7.85;3.88;;;17.30;99.90;;;;;;5031433;28;20119;-45
2021/06/05 04:29:06;;;;;;;6.88;3.95;;;17.30;99.90;;;;;;5034008;28;20171;-46
2021/06/05 04:32:10;;;;;;;6.95;3.70;;;17.30;99.90;;;;;;5045414;28;20408;-44
2021/06/05 04:35:15;;;;;;;10.07;3.40;;;17.30;99.90;;;;;;5031084;28;20040;-46
2021/06/05 04:38:20;;;;;;;8.25;3.95;;;17.30;99.90;;;;;;5031433;28;20049;-46
2021/06/05 04:41:25;;;;;;;8.02;3.85;;;17.30;99.90;;;;;;5043233;28;20423;-49
2021/06/05 04:44:31;;;;;;;5.63;3.75;;;17.30;99.90;;;;;;5038529;28;20403;-47
2021/06/05 04:47:35;;;;;;;6.93;3.42;;;17.40;99.90;;;;;;5051174;28;20047;-47
2021/06/05 04:50:42;;;;;;;6.20;3.25;;;17.40;99.90;;;;;;5050488;28;20044;-45
2021/06/05 04:53:48;;;;;;;6.03;3.40;;;17.40;99.90;;;;;;5051289;28;20036;-46
2021/06/05 04:56:52;;;;;;;15.98;5.03;;;17.40;99.90;;;;;;5050653;28;20048;-46
2021/06/05 04:59:56;;;;;;;11.50;6.32;;;17.40;99.90;;;;;;5031081;28;20068;-48
2021/06/05 05:03:02;;;;;;;10.18;5.53;;;17.40;99.90;;;;;;5031416;28;20044;-45
2021/06/05 05:06:06;;;;;;;14.52;6.80;;;17.40;99.90;;;;;;5030492;28;20044;-50
2021/06/05 05:09:13;;;;;;;28.85;14.65;;;17.50;99.90;;;;;;5031186;28;20097;-48
2021/06/05 05:12:18;;;;;;;35.08;17.05;;;17.40;99.90;;;;;;5031983;28;20519;-49
2021/06/05 05:15:23;;;;;;;22.75;11.88;;;17.50;99.90;;;;;;5050598;28;20530;-50
2021/06/05 05:18:27;;;;;;;21.10;10.48;;;17.80;99.90;;;;;;5050468;28;20048;-46
2021/06/05 05:21:31;;;;;;;13.77;6.95;;;18.00;99.90;;;;;;5049893;28;20048;-50
2021/06/05 05:24:36;;;;;;;7.35;4.97;;;17.90;99.90;;;;;;5050680;28;20052;-47
2021/06/05 05:27:41;;;;;;;11.13;5.85;;;17.90;99.90;;;;;;5049041;28;20048;-50
2021/06/05 05:30:53;;;;;;;9.43;5.22;;;17.80;99.90;;;;;;5050171;28;20044;-45
2021/06/05 05:34:00;;;;;;;11.98;5.20;;;18.00;99.90;;;;;;5049991;28;20051;-48
2021/06/05 05:37:04;;;;;;;9.05;4.45;;;18.10;99.90;;;;;;5050401;28;20118;-48
2021/06/05 05:40:10;;;;;;;8.63;4.18;;;18.20;99.90;;;;;;5050332;28;20040;-48
2021/06/05 05:43:15;;;;;;;5.25;4.32;;;18.30;99.90;;;;;;5049268;28;20052;-46
2021/06/05 05:46:19;;;;;;;9.68;4.95;;;18.30;99.90;;;;;;5045441;28;20040;-49
2021/06/05 05:49:25;;;;;;;14.95;4.65;;;18.50;99.90;;;;;;5047557;28;20392;-45
2021/06/05 05:52:30;;;;;;;7.45;4.13;;;18.60;99.90;;;;;;5048861;28;20207;-47
2021/06/05 05:55:34;;;;;;;10.38;4.90;;;18.70;99.90;;;;;;5049173;28;20044;-47
2021/06/05 05:58:43;;;;;;;7.65;4.28;;;18.80;99.90;;;;;;5048536;28;20120;-50
2021/06/05 06:01:48;;;;;;;9.15;5.05;;;19.00;99.90;;;;;;5048942;28;20036;-50
2021/06/05 06:04:52;;;;;;;9.35;4.55;;;19.10;99.90;;;;;;5049409;28;20559;-52
2021/06/05 06:07:56;;;;;;;9.02;5.28;;;19.10;99.90;;;;;;5049733;28;20243;-45
2021/06/05 06:11:01;;;;;;;8.38;4.45;;;19.10;99.90;;;;;;5048746;28;20048;-48
2021/06/05 06:14:05;;;;;;;9.57;5.18;;;19.20;99.90;;;;;;5049896;28;20514;-47
2021/06/05 06:17:09;;;;;;;8.38;4.63;;;19.00;99.90;;;;;;5049582;28;20048;-50
2021/06/05 06:20:30;;;;;;;10.18;4.63;;;19.10;99.90;;;;;;5048870;28;20044;-47
2021/06/05 06:23:39;;;;;;;5.90;3.72;;;19.40;99.90;;;;;;5048367;28;20424;-47
2021/06/05 06:26:43;;;;;;;7.50;4.55;;;19.70;99.90;;;;;;5046928;28;20040;-49
2021/06/05 06:29:47;;;;;;;9.32;4.57;;;19.30;99.90;;;;;;5048524;28;20047;-52
2021/06/05 06:32:52;;;;;;;7.47;4.15;;;19.70;99.90;;;;;;5046792;28;20511;-47
2021/06/05 06:35:57;;;;;;;13.10;4.90;;;19.90;99.50;;;;;;5047069;28;20063;-50
2021/06/05 06:39:03;;;;;;;6.78;4.05;;;20.80;98.80;;;;;;5026071;28;20044;-48
2021/06/05 06:42:08;;;;;;;6.75;3.97;;;21.10;97.70;;;;;;4968785;28;20057;-51
2021/06/05 06:45:13;;;;;;;10.43;4.53;;;21.60;97.00;;;;;;4989977;28;20515;-51
2021/06/05 06:48:18;;;;;;;7.72;4.50;;;22.00;96.40;;;;;;5009093;28;20056;-48
2021/06/05 06:51:24;;;;;;;11.25;5.45;;;22.70;95.70;;;;;;5008387;28;20056;-50
2021/06/05 06:54:29;;;;;;;10.93;6.40;;;23.40;95.00;;;;;;5021288;28;20044;-49
2021/06/05 06:57:33;;;;;;;9.00;5.32;;;23.50;94.40;;;;;;5014773;28;20048;-46
2021/06/05 07:00:42;;;;;;;14.90;7.25;;;23.80;94.40;;;;;;5013575;28;20040;-49
2021/06/05 07:03:48;;;;;;;11.52;5.80;;;24.00;94.00;;;;;;5024475;28;20068;-52
2021/06/05 07:06:52;;;;;;;10.48;6.22;;;24.10;94.00;;;;;;5023634;28;20052;-50
2021/06/05 07:09:57;;;;;;;13.32;6.18;;;22.80;95.10;;;;;;5022315;28;20479;-50
2021/06/05 07:13:02;;;;;;;9.85;5.55;;;22.40;95.90;;;;;;5017776;28;20045;-48
2021/06/05 07:16:08;;;;;;;13.95;6.50;;;21.40;96.90;;;;;;5020442;28;20064;-50
2021/06/05 07:19:14;;;;;;;10.10;5.00;;;21.20;98.00;;;;;;5028852;28;20743;-50
2021/06/05 07:22:18;;;;;;;10.60;5.80;;;21.10;98.30;;;;;;5015261;28;20057;-48
2021/06/05 07:25:23;;;;;;;12.25;5.82;;;21.20;97.80;;;;;;5015905;28;20053;-48
2021/06/05 07:28:29;;;;;;;10.05;5.18;;;22.20;97.60;;;;;;5017991;28;20044;-46
2021/06/05 07:31:42;;;;;;;11.25;6.70;;;23.30;96.10;;;;;;5018600;28;20510;-51
2021/06/05 07:34:46;;;;;;;13.25;6.45;;;24.20;94.50;;;;;;5024858;28;20040;-49
2021/06/05 07:37:50;;;;;;;14.48;6.63;;;24.80;93.80;;;;;;5016159;28;20752;-45
2021/06/05 07:40:57;;;;;;;15.48;6.10;;;25.70;92.30;;;;;;5033419;28;20044;-47
2021/06/05 07:44:03;;;;;;;11.15;6.28;;;26.50;91.90;;;;;;5046813;28;20059;-47
2021/06/05 07:47:07;;;;;;;16.15;7.07;;;26.20;92.50;;;;;;5030100;28;20522;-47
2021/06/05 07:50:14;;;;;;;11.55;5.88;;;27.00;91.00;;;;;;5028983;28;20068;-51
2021/06/05 07:53:19;;;;;;;13.98;6.70;;;27.00;90.00;;;;;;5031219;28;20037;-50
2021/06/05 07:56:23;;;;;;;12.60;6.25;;;25.50;91.00;;;;;;5036861;28;20048;-46
2021/06/05 07:59:28;;;;;;;13.35;5.60;;;26.30;89.20;;;;;;5035739;28;20056;-47
2021/06/05 08:02:33;;;;;;;16.05;6.13;;;26.90;88.60;;;;;;5036490;28;20408;-47
2021/06/05 08:05:39;;;;;;;9.75;5.30;;;26.20;90.10;;;;;;5048675;28;20044;-47
2021/06/05 08:08:43;;;;;;;12.73;7.65;;;25.30;89.50;;;;;;5044985;28;20048;-45
2021/06/05 08:11:48;;;;;;;14.85;7.75;;;23.10;90.90;;;;;;5048875;28;20044;-48
2021/06/05 08:14:52;;;;;;;15.10;8.07;;;22.50;91.50;;;;;;5051314;28;20044;-46
2021/06/05 08:17:56;;;;;;;16.33;8.30;;;22.00;93.30;;;;;;5049127;28;20036;-51
2021/06/05 08:21:07;;;;;;;13.80;5.20;;;21.90;95.60;;;;;;5048630;28;20048;-48
2021/06/05 08:24:13;;;;;;;11.32;5.85;;;21.60;96.30;;;;;;5047147;28;20541;-46
2021/06/05 08:27:18;;;;;;;11.65;6.28;;;21.40;97.10;;;;;;5049198;28;20040;-49
2021/06/05 08:30:27;;;;;;;12.65;5.28;;;21.10;99.00;;;;;;5043571;28;20403;-47
2021/06/05 08:33:31;;;;;;;16.98;6.43;;;20.80;99.30;;;;;;5044767;28;20048;-48
2021/06/05 08:36:35;;;;;;;9.73;5.30;;;20.70;99.90;;;;;;5050574;28;20064;-48
2021/06/05 08:39:39;;;;;;;9.60;5.05;;;20.70;99.90;;;;;;5050138;28;20311;-46
2021/06/05 08:42:50;;;;;;;10.13;5.82;;;21.00;99.90;;;;;;5051315;28;20434;-48
2021/06/05 08:45:55;;;;;;;9.32;5.15;;;21.40;99.70;;;;;;5040176;28;20036;-48
2021/06/05 08:49:01;;;;;;;10.07;4.80;;;21.70;98.10;;;;;;5050907;28;20524;-48
2021/06/05 08:52:17;;;;;;;13.85;5.10;;;22.40;97.40;;;;;;5050115;28;20044;-51
2021/06/05 08:55:51;;;;;;;15.00;5.35;;;22.90;95.70;;;;;;5050623;28;20060;-49
2021/06/05 08:59:00;;;;;;;17.50;6.18;;;23.00;95.60;;;;;;5050721;28;20411;-50
2021/06/05 09:02:05;;;;;;;14.98;6.90;;;22.80;95.40;;;;;;5037301;28;20048;-47
2021/06/05 09:05:14;;;;;;;18.08;6.85;;;22.60;95.30;;;;;;5050869;28;20530;-46
2021/06/05 09:08:19;;;;;;;13.55;6.93;;;22.70;95.70;;;;;;5050994;28;20055;-48
2021/06/05 09:11:23;;;;;;;15.27;6.78;;;22.70;94.60;;;;;;5050128;28;20047;-51
2021/06/05 09:14:28;;;;;;;10.30;5.15;;;23.10;93.90;;;;;;5050644;28;20036;-48
2021/06/05 09:17:35;;;;;;;12.02;5.18;;;23.00;95.10;;;;;;5050226;28;20155;-48
2021/06/05 09:21:00;;;;;;;8.82;4.53;;;22.20;94.10;;;;;;5050148;28;20047;-47
2021/06/05 09:24:39;;;;;;;14.63;5.43;;;21.70;95.00;;;;;;5050234;28;20036;-46
2021/06/05 09:27:43;;;;;;;9.27;4.03;;;22.60;94.90;;;;;;5029911;28;20045;-47
2021/06/05 09:30:49;;;;;;;7.78;4.03;;;21.50;95.20;;;;;;5034950;28;20065;-51
2021/06/05 09:33:54;;;;;;;7.43;4.40;;;21.10;95.90;;;;;;5039583;28;20032;-50
2021/06/05 09:37:00;;;;;;;14.90;4.70;;;21.40;97.10;;;;;;5049744;28;20514;-49
2021/06/05 09:40:18;;;;;;;8.15;4.32;;;21.30;95.30;;;;;;5049622;28;20060;-47
2021/06/05 09:43:25;;;;;;;6.65;4.47;;;21.00;96.60;;;;;;5050047;28;20404;-50
2021/06/05 09:46:32;;;;;;;8.02;3.80;;;20.80;96.90;;;;;;5050190;28;20060;-51
2021/06/05 09:49:40;;;;;;;9.90;4.38;;;21.00;96.70;;;;;;5049914;28;20052;-48
2021/06/05 09:52:45;;;;;;;8.32;4.25;;;21.40;96.90;;;;;;5049570;28;20526;-50
2021/06/05 09:55:49;;;;;;;6.78;4.07;;;21.60;96.70;;;;;;5050146;28;20056;-47
2021/06/05 09:59:10;;;;;;;9.93;3.85;;;21.30;96.70;;;;;;5049831;28;20056;-47
2021/06/05 10:02:22;;;;;;;5.13;3.80;;;21.40;97.10;;;;;;5049602;28;20048;-47
2021/06/05 10:05:33;;;;;;;6.15;3.00;;;22.30;96.40;;;;;;5049908;28;20043;-48
2021/06/05 10:08:40;;;;;;;8.02;3.60;;;22.80;94.70;;;;;;5049661;28;20044;-48
2021/06/05 10:11:46;;;;;;;8.02;3.55;;;23.70;94.80;;;;;;5049127;28;20040;-49
2021/06/05 10:15:14;;;;;;;5.00;3.55;;;24.20;92.30;;;;;;5048841;28;20044;-48
2021/06/05 10:18:25;;;;;;;10.20;3.47;;;24.20;91.50;;;;;;5049944;28;20518;-47
2021/06/05 10:21:41;;;;;;;6.43;2.95;;;24.50;91.90;;;;;;5049271;28;20044;-46
2021/06/05 10:25:04;;;;;;;7.82;3.03;;;24.40;91.00;;;;;;5046576;28;20051;-47
2021/06/05 10:28:16;;;;;;;4.90;2.67;;;24.70;88.90;;;;;;5036542;28;20407;-46
2021/06/05 10:31:21;;;;;;;;;;;24.60;88.80;;;;;;5048670;28;20075;-47
2021/06/05 10:34:44;;;;;;;7.80;3.50;;;24.20;90.90;;;;;;5048996;28;19931;-52
2021/06/05 10:37:48;;;;;;;7.35;3.28;;;23.70;91.90;;;;;;5049764;28;20044;-48
2021/06/05 10:40:53;;;;;;;3.17;2.55;;;24.20;91.80;;;;;;5048524;28;20040;-47
2021/06/05 10:43:58;;;;;;;5.38;2.92;;;25.30;90.30;;;;;;5036728;28;20515;-46
2021/06/05 10:47:12;;;;;;;7.90;2.90;;;26.00;87.80;;;;;;5029255;28;20538;-51
2021/06/05 10:50:25;;;;;;;3.97;2.80;;;26.30;87.50;;;;;;5029016;28;20040;-48
2021/06/05 10:54:03;;;;;;;7.40;3.10;;;24.80;89.10;;;;;;5029458;28;20048;-48
2021/06/05 10:57:19;;;;;;;6.50;2.92;;;25.40;89.10;;;;;;5029656;28;20048;-53
2021/06/05 11:00:42;;;;;;;10.02;3.03;;;27.40;85.20;;;;;;5036799;28;20036;-52
2021/06/05 11:03:50;;;;;;;4.50;2.72;;;28.60;84.40;;;;;;5049478;28;20068;-52
2021/06/05 11:07:04;;;;;;;8.52;2.80;;;26.90;84.60;;;;;;5049341;28;20040;-46
2021/06/05 11:10:09;;;;;;;5.18;2.55;;;28.30;80.00;;;;;;5049031;28;20044;-48
2021/06/05 11:13:35;;;;;;;9.40;2.63;;;29.60;81.10;;;;;;5048768;28;20048;-48
2021/06/05 11:16:59;;;;;;;4.40;2.03;;;30.50;75.30;;;;;;5048940;28;20403;-49
2021/06/05 11:20:07;;;;;;;3.65;2.10;;;32.70;72.90;;;;;;5051479;28;20043;-47
2021/06/05 11:23:13;;;;;;;3.97;2.20;;;34.60;69.80;;;;;;5048528;28;20060;-46
2021/06/05 11:26:36;;;;;;;2.97;2.13;;;35.10;67.40;;;;;;5051641;28;20044;-48
2021/06/05 11:29:44;;;;;;;4.95;2.10;;;34.70;66.40;;;;;;5020701;28;20048;-47
2021/06/05 11:32:56;;;;;;;5.20;2.10;;;33.00;65.70;;;;;;5032116;28;20052;-51
2021/06/05 11:36:01;;;;;;;5.47;2.10;;;33.60;66.50;;;;;;5040331;28;20040;-51
2021/06/05 11:39:29;;;;;;;3.70;2.00;;;33.30;65.80;;;;;;5052328;28;20036;-53
2021/06/05 11:42:33;;;;;;;20.33;4.05;;;32.30;64.40;;;;;;5051991;28;20043;-46
2021/06/05 11:45:59;;;;;;;7.07;2.28;;;32.10;67.30;;;;;;5052487;28;20130;-51
2021/06/05 11:49:04;;;;;;;3.80;2.50;;;32.10;67.90;;;;;;5052240;28;20064;-51
2021/06/05 11:52:33;;;;;;;2.90;2.50;;;31.30;68.50;;;;;;5051489;28;20528;-47
2021/06/05 11:55:48;;;;;;;5.30;2.60;;;32.20;67.80;;;;;;5052441;28;20044;-47
2021/06/05 11:58:53;;;;;;;7.53;2.70;;;28.60;73.30;;;;;;5052008;28;20060;-47
2021/06/05 12:02:26;;;;;;;5.32;2.88;;;30.10;72.50;;;;;;5051693;28;20506;-48
2021/06/05 12:05:42;;;;;;;5.10;2.72;;;29.90;73.90;;;;;;5052431;28;20052;-46
2021/06/05 12:08:58;;;;;;;3.92;2.53;;;31.90;70.70;;;;;;5051798;28;20060;-49
2021/06/05 12:12:09;;;;;;;3.63;2.25;;;33.80;68.60;;;;;;5051179;28;20300;-51
2021/06/05 12:15:33;;;;;;;4.07;2.30;;;35.80;66.50;;;;;;5051251;28;20040;-49
2021/06/05 12:18:38;;;;;;;2.97;2.08;;;36.70;65.10;;;;;;5051684;28;20036;-46
2021/06/05 12:21:44;;;;;;;3.75;2.30;;;35.00;65.40;;;;;;5051499;28;20044;-51
2021/06/05 12:24:52;;;;;;;4.28;2.33;;;33.80;66.40;;;;;;5051411;28;20056;-48
2021/06/05 12:28:09;;;;;;;6.85;2.40;;;32.90;67.50;;;;;;5052053;28;20068;-52
2021/06/05 12:31:27;;;;;;;5.60;2.55;;;32.50;69.40;;;;;;5051129;28;20052;-47
2021/06/05 12:34:35;;;;;;;7.30;2.78;;;32.50;69.50;;;;;;5050868;28;20040;-48
2021/06/05 12:37:49;;;;;;;2.85;2.25;;;33.00;68.30;;;;;;5051016;28;20044;-51
2021/06/05 12:40:57;;;;;;;6.80;2.40;;;32.80;68.90;;;;;;5051098;28;20067;-52
2021/06/05 12:44:02;;;;;;;3.83;2.33;;;33.20;68.80;;;;;;5050875;28;20271;-48
2021/06/05 12:47:14;;;;;;;7.43;2.42;;;32.70;70.60;;;;;;5051069;28;20044;-45
2021/06/05 12:50:21;;;;;;;5.07;2.03;;;33.40;70.00;;;;;;5050734;28;20044;-48
2021/06/05 12:53:31;;;;;;;3.67;2.00;;;34.50;69.80;;;;;;5030860;28;20420;-50
2021/06/05 12:56:37;;;;;;;4.25;2.25;;;35.50;69.20;;;;;;5031029;28;20044;-47
2021/06/05 12:59:42;;;;;;;4.13;2.03;;;36.30;67.80;;;;;;5031404;28;20056;-53
2021/06/05 13:02:48;;;;;;;3.53;2.25;;;37.00;65.70;;;;;;5030653;28;20056;-49
2021/06/05 13:06:20;;;;;;;3.15;2.10;;;36.20;66.00;;;;;;5030506;28;20056;-50
2021/06/05 13:09:31;;;;;;;10.65;2.85;;;35.80;67.10;;;;;;5032575;28;20056;-53
2021/06/05 13:12:35;;;;;;;6.03;2.35;;;31.70;70.00;;;;;;5050221;28;20044;-51
2021/06/05 13:16:11;;;;;;;8.23;2.67;;;29.40;73.50;;;;;;5051019;28;20059;-50
2021/06/05 13:19:20;;;;;;;4.20;2.80;;;30.60;74.20;;;;;;5050214;28;20063;-53
2021/06/05 13:22:24;;;;;;;6.45;2.70;;;31.30;72.20;;;;;;5050978;28;20454;-52
2021/06/05 13:25:29;;;;;;;5.20;2.30;;;31.80;72.90;;;;;;5066726;28;20403;-49
2021/06/05 13:28:33;;;;;;;7.10;2.58;;;32.10;72.30;;;;;;5055131;28;20047;-49
2021/06/05 13:31:47;;;;;;;5.22;2.75;;;32.80;71.50;;;;;;5061829;28;20047;-51
2021/06/05 13:34:51;;;;;;;5.88;2.80;;;32.90;69.50;;;;;;5059423;28;20044;-46
2021/06/05 13:37:59;;;;;;;6.20;2.30;;;33.00;71.30;;;;;;5052762;28;20047;-50
2021/06/05 13:41:04;;;;;;;4.18;2.05;;;33.70;71.40;;;;;;5062389;28;20044;-46
2021/06/05 13:44:09;;;;;;;5.10;2.10;;;34.20;69.50;;;;;;5056396;28;20107;-48
2021/06/05 13:47:14;;;;;;;5.30;2.58;;;34.30;69.30;;;;;;5051933;28;20040;-47
2021/06/05 13:50:22;;;;;;;9.02;2.40;;;34.30;68.80;;;;;;5069846;28;20036;-51
2021/06/05 13:53:32;;;;;;;3.45;2.05;;;33.70;70.20;;;;;;5048374;28;20550;-48
2021/06/05 13:56:38;;;;;;;7.47;2.60;;;32.80;70.90;;;;;;5047418;28;20056;-47
2021/06/05 13:59:42;;;;;;;3.88;2.33;;;31.00;73.00;;;;;;5047279;28;20275;-46
2021/06/05 14:02:47;;;;;;;8.20;2.28;;;31.40;74.50;;;;;;5047404;28;20040;-46
2021/06/05 14:05:52;;;;;;;7.55;2.55;;;31.70;74.00;;;;;;5047740;28;20048;-47
2021/06/05 14:08:56;;;;;;;9.15;2.75;;;32.00;73.60;;;;;;5046127;28;20036;-48
2021/06/05 14:12:01;;;;;;;16.02;4.40;;;31.90;73.90;;;;;;5048826;28;20048;-46
2021/06/05 14:15:15;;;;;;;218.98;44.45;;;31.60;73.70;;;;;;5048519;28;20044;-48
2021/06/05 14:18:24;;;;;;;25.77;6.95;;;31.20;73.60;;;;;;5048963;28;20495;-49
2021/06/05 14:21:29;;;;;;;29.33;7.55;;;31.00;73.40;;;;;;5048314;28;20044;-48
2021/06/05 14:24:33;;;;;;;29.52;8.57;;;30.80;73.80;;;;;;5047799;28;20317;-46
2021/06/05 14:27:39;;;;;;;159.73;35.67;;;30.40;74.70;;;;;;5048557;28;20403;-47
2021/06/05 14:30:46;;;;;;;11.65;3.17;;;30.10;75.00;;;;;;5048389;28;20407;-46
2021/06/05 14:33:53;;;;;;;5.72;2.63;;;29.70;75.70;;;;;;5046954;28;20044;-47
2021/06/05 14:36:58;;;;;;;6.07;2.75;;;29.30;76.80;;;;;;5046473;28;20379;-49
2021/06/05 14:40:04;;;;;;;78.65;15.80;;;28.70;78.00;;;;;;5045572;28;20513;-47
2021/06/05 14:43:09;;;;;;;8.07;2.72;;;28.00;79.60;;;;;;5048381;28;20052;-45
2021/06/05 14:46:15;;;;;;;6.20;2.65;;;27.50;80.00;;;;;;5048053;28;20039;-46
2021/06/05 14:49:20;;;;;;;10.15;3.10;;;27.10;80.90;;;;;;5046371;28;20063;-48
2021/06/05 14:52:25;;;;;;;4.15;2.78;;;26.60;83.30;;;;;;5045500;28;20064;-52
2021/06/05 14:55:35;;;;;;;7.55;3.20;;;25.90;85.50;;;;;;5048305;28;20044;-48
2021/06/05 14:58:40;;;;;;;12.00;4.65;;;24.50;90.50;;;;;;5047057;28;20040;-46
2021/06/05 15:01:44;;;;;;;8.32;3.42;;;23.00;96.20;;;;;;5040345;28;20413;-47
2021/06/05 15:04:51;;;;;;;8.88;3.05;;;21.50;99.90;;;;;;5052795;28;20052;-45
2021/06/05 15:07:56;;;;;;;15.68;4.47;;;20.70;99.90;;;;;;5052769;28;20052;-47
2021/06/05 15:11:01;;;;;;;7.00;3.67;;;20.30;99.90;;;;;;5052975;28;20044;-46
2021/06/05 15:14:05;;;;;;;8.80;4.00;;;20.10;99.90;;;;;;5050652;28;20048;-45
2021/06/05 15:17:13;;;;;;;6.07;3.47;;;19.80;99.90;;;;;;5050232;28;20052;-46
2021/06/05 15:20:22;;;;;;;7.93;3.63;;;19.70;99.90;;;;;;5051437;28;20063;-47
2021/06/05 15:23:27;;;;;;;8.23;4.40;;;19.40;99.90;;;;;;5040958;28;20051;-46
2021/06/05 15:26:32;;;;;;;7.80;4.82;;;19.10;99.90;;;;;;5052519;28;20052;-49
2021/06/05 15:29:37;;;;;;;7.70;4.88;;;18.90;99.90;;;;;;5040444;28;20074;-47
2021/06/05 15:32:42;;;;;;;7.40;4.45;;;18.80;99.90;;;;;;5053061;28;20063;-46
2021/06/05 15:35:47;;;;;;;11.23;4.45;;;18.70;99.90;;;;;;5050914;28;20040;-47
2021/06/05 15:38:52;;;;;;;10.73;5.25;;;18.60;99.90;;;;;;5050688;28;20100;-48
2021/06/05 15:41:57;;;;;;;10.00;5.15;;;18.50;99.90;;;;;;5027272;28;20040;-45
2021/06/05 15:45:04;;;;;;;10.30;6.30;;;18.30;99.90;;;;;;5038667;28;20048;-45
2021/06/05 15:48:11;;;;;;;14.15;6.45;;;18.20;99.90;;;;;;5052291;28;20048;-46
2021/06/05 15:51:37;;;;;;;11.50;6.72;;;18.30;99.90;;;;;;5051109;28;20040;-48
2021/06/05 15:54:41;;;;;;;14.77;7.60;;;18.20;99.90;;;;;;5046616;28;20056;-47
2021/06/05 15:57:46;;;;;;;11.68;7.03;;;18.20;99.90;;;;;;5051485;28;20048;-51
2021/06/05 16:00:50;;;;;;;11.65;7.38;;;18.30;99.90;;;;;;5049012;28;20032;-46
2021/06/05 16:04:00;;;;;;;16.52;7.38;;;18.30;99.90;;;;;;5050159;28;20047;-48
2021/06/05 16:07:05;;;;;;;10.75;7.10;;;18.30;99.90;;;;;;5050010;28;20063;-48
2021/06/05 16:10:10;;;;;;;17.60;9.00;;;18.30;99.90;;;;;;5049413;28;20047;-47
2021/06/05 16:13:18;;;;;;;17.98;9.38;;;18.30;99.90;;;;;;5044721;28;20043;-46
2021/06/05 16:16:23;;;;;;;16.88;8.23;;;18.40;99.90;;;;;;5051725;28;20625;-49